createdAt,value
2017-06-14T06:55:01.045Z,1020.127
2017-06-14T06:59:03.870Z,1020.216
2017-06-14T07:12:44.220Z,1020.302
2017-06-14T07:15:28.050Z,1020.366
2017-06-14T07:19:07.354Z,1020.332
2017-06-14T07:28:51.685Z,1020.305
2017-06-14T07:31:35.789Z,1020.325
2017-06-14T07:34:29.863Z,1020.401
2017-06-14T07:37:24.667Z,1020.410
2017-06-14T07:40:19.735Z,1020.478
2017-06-14T07:43:14.757Z,1020.450
2017-06-14T07:46:09.862Z,1020.496
2017-06-14T07:49:04.772Z,1020.499
2017-06-14T07:51:59.906Z,1020.507
2017-06-14T07:54:55.103Z,1020.573
2017-06-14T08:00:45.512Z,1020.567
2017-06-14T08:03:40.696Z,1020.593
2017-06-14T08:06:35.879Z,1020.658
2017-06-14T08:09:31.113Z,1020.704
2017-06-14T08:15:47.334Z,1020.670
2017-06-14T08:21:37.507Z,1020.769
2017-06-14T08:24:32.665Z,1020.734
2017-06-14T08:27:27.881Z,1020.760
2017-06-14T08:30:22.961Z,1020.790
2017-06-14T08:36:13.449Z,1020.695
2017-06-14T08:39:08.643Z,1020.633
2017-06-14T08:42:04.185Z,1020.652
2017-06-14T08:44:59.798Z,1020.650
2017-06-14T08:47:55.154Z,1020.631
2017-06-14T08:50:50.851Z,1020.642
2017-06-14T08:53:46.305Z,1020.731
2017-06-14T08:56:41.594Z,1020.844
2017-06-14T08:59:36.807Z,1020.884
2017-06-14T09:08:22.592Z,1020.945
2017-06-14T09:11:17.938Z,1020.915
2017-06-14T09:14:13.141Z,1020.783
2017-06-14T09:17:08.358Z,1020.739
2017-06-14T09:20:03.691Z,1020.798
2017-06-14T09:22:59.170Z,1020.794
2017-06-14T09:25:54.985Z,1020.776
2017-06-14T09:28:50.633Z,1020.700
2017-06-14T09:34:42.236Z,1020.545
2017-06-14T09:37:38.162Z,1020.534
2017-06-14T09:43:30.205Z,1020.438
2017-06-14T09:46:26.069Z,1020.381
2017-06-14T09:49:21.740Z,1020.288
2017-06-14T09:52:17.588Z,1020.262
2017-06-14T09:55:13.468Z,1020.220
2017-06-14T09:58:09.652Z,1020.200
2017-06-14T10:01:05.764Z,1020.217
2017-06-14T10:04:02.025Z,1020.217
2017-06-14T10:06:58.059Z,1020.135
2017-06-14T10:09:54.105Z,1020.168
2017-06-14T10:12:50.323Z,1020.117
2017-06-14T10:15:46.402Z,1020.115
2017-06-14T10:18:42.606Z,1019.974
2017-06-14T10:21:38.725Z,1019.926
2017-06-14T10:24:34.712Z,1019.963
2017-06-14T10:27:30.692Z,1019.892
2017-06-14T10:30:26.562Z,1019.884
2017-06-14T10:33:22.070Z,1019.887
2017-06-14T10:36:17.468Z,1019.849
2017-06-14T10:39:12.891Z,1019.910
2017-06-14T10:42:08.284Z,1019.902
2017-06-14T10:45:03.770Z,1019.833
2017-06-14T10:47:59.115Z,1019.784
2017-06-14T10:50:54.664Z,1019.934
2017-06-14T10:53:50.139Z,1019.913
2017-06-14T10:56:45.543Z,1019.936
2017-06-14T10:59:40.849Z,1019.896
2017-06-14T11:02:36.309Z,1019.874
2017-06-14T11:05:31.801Z,1019.907
2017-06-14T11:08:27.300Z,1019.934
2017-06-14T11:11:22.666Z,1019.908
2017-06-14T11:14:18.051Z,1019.863
2017-06-14T11:17:13.362Z,1019.934
2017-06-14T11:20:08.719Z,1019.956
2017-06-14T11:23:03.991Z,1019.973
2017-06-14T11:25:59.446Z,1019.893
2017-06-14T11:28:54.580Z,1019.941
2017-06-14T11:34:45.101Z,1019.881
2017-06-14T11:37:40.265Z,1019.870
2017-06-14T11:40:35.420Z,1019.916
2017-06-14T11:43:30.694Z,1019.948
2017-06-14T11:46:25.859Z,1019.920
2017-06-14T11:49:21.087Z,1019.966
2017-06-14T11:55:11.597Z,1019.984
2017-06-14T12:01:01.971Z,1019.960
2017-06-14T12:03:57.201Z,1019.990
2017-06-14T12:06:52.435Z,1020.035
2017-06-14T12:09:47.724Z,1020.066
2017-06-14T12:15:38.285Z,1020.120
2017-06-14T12:18:33.588Z,1020.030
2017-06-14T12:21:28.886Z,1019.958
2017-06-14T12:24:24.203Z,1020.006
2017-06-14T12:27:19.405Z,1019.907
2017-06-14T12:30:14.737Z,1019.855
2017-06-14T12:33:10.054Z,1019.941
2017-06-14T12:36:05.389Z,1019.927
2017-06-14T12:39:00.741Z,1019.940
2017-06-14T12:41:56.113Z,1019.855
2017-06-14T12:44:51.369Z,1019.817
2017-06-14T12:47:46.705Z,1019.814
2017-06-14T12:50:41.847Z,1019.785
2017-06-14T12:53:37.097Z,1019.913
2017-06-14T12:59:27.409Z,1019.840
2017-06-14T13:05:17.935Z,1019.854
2017-06-14T13:08:13.019Z,1019.770
2017-06-14T13:11:08.553Z,1019.756
2017-06-14T13:14:03.819Z,1019.756
2017-06-14T13:16:59.190Z,1019.694
2017-06-14T13:19:54.430Z,1019.672
2017-06-14T13:22:49.703Z,1019.671
2017-06-14T13:25:44.887Z,1019.675
2017-06-14T13:28:40.075Z,1019.611
2017-06-14T13:31:35.307Z,1019.564
2017-06-14T13:34:30.721Z,1019.673
2017-06-14T13:37:25.900Z,1019.637
2017-06-14T13:40:21.124Z,1019.502
2017-06-14T13:43:16.352Z,1019.546
2017-06-14T13:46:11.570Z,1019.584
2017-06-14T13:49:06.742Z,1019.578
2017-06-14T13:52:02.054Z,1019.461
2017-06-14T13:54:57.312Z,1019.448
2017-06-14T13:57:52.526Z,1019.416
2017-06-14T14:00:47.720Z,1019.512
2017-06-14T14:03:42.903Z,1019.438
2017-06-14T14:09:33.237Z,1019.352
2017-06-14T14:12:28.428Z,1019.324
2017-06-14T14:15:23.553Z,1019.304
2017-06-14T14:18:18.895Z,1019.301
2017-06-14T14:24:09.446Z,1019.335
2017-06-14T14:27:04.734Z,1019.312
2017-06-14T14:29:59.954Z,1019.334
2017-06-14T14:32:55.073Z,1019.233
2017-06-14T14:35:50.384Z,1019.203
2017-06-14T14:38:45.533Z,1019.160
2017-06-14T14:41:40.850Z,1019.169
2017-06-14T14:44:36.055Z,1019.159
2017-06-14T14:47:31.260Z,1019.103
2017-06-14T14:50:26.428Z,1019.025
2017-06-14T14:53:21.706Z,1019.012
2017-06-14T14:56:16.915Z,1018.952
2017-06-14T14:59:12.076Z,1018.916
2017-06-14T15:02:07.500Z,1018.872
2017-06-14T15:05:02.750Z,1018.807
2017-06-14T15:07:57.849Z,1018.808
2017-06-14T15:10:52.936Z,1018.762
2017-06-14T15:13:48.182Z,1018.766
2017-06-14T15:16:43.384Z,1018.782
2017-06-14T15:19:38.631Z,1018.830
2017-06-14T15:25:29.019Z,1018.756
2017-06-14T15:28:24.197Z,1018.781
2017-06-14T15:34:14.705Z,1018.771
2017-06-14T15:37:09.935Z,1018.725
2017-06-14T15:40:05.055Z,1018.743
2017-06-14T15:43:00.233Z,1018.729
2017-06-14T15:45:55.418Z,1018.715
2017-06-14T15:48:50.640Z,1018.653
2017-06-14T15:51:45.868Z,1018.651
2017-06-14T15:54:41.057Z,1018.630
2017-06-14T15:57:36.283Z,1018.678
2017-06-14T16:00:31.459Z,1018.674
2017-06-14T16:03:26.572Z,1018.713
2017-06-14T16:06:21.905Z,1018.697
2017-06-14T16:09:17.171Z,1018.656
2017-06-14T16:12:12.304Z,1018.697
2017-06-14T16:15:07.466Z,1018.691
2017-06-14T16:18:02.682Z,1018.679
2017-06-14T16:20:57.931Z,1018.666
2017-06-14T16:23:52.988Z,1018.618
2017-06-14T16:26:48.161Z,1018.624
2017-06-14T16:29:43.337Z,1018.628
2017-06-14T16:32:38.451Z,1018.615
2017-06-14T16:35:33.575Z,1018.626
2017-06-14T16:38:28.822Z,1018.656
2017-06-14T16:41:23.954Z,1018.646
2017-06-14T16:44:19.209Z,1018.646
2017-06-14T16:47:14.406Z,1018.625
2017-06-14T16:50:09.563Z,1018.593
2017-06-14T16:53:04.680Z,1018.589
2017-06-14T16:55:59.758Z,1018.582
2017-06-14T16:58:54.824Z,1018.626
2017-06-14T17:01:50.070Z,1018.613
2017-06-14T17:04:45.239Z,1018.643
2017-06-14T17:07:40.373Z,1018.634
2017-06-14T17:10:35.592Z,1018.652
2017-06-14T17:13:30.734Z,1018.661
2017-06-14T17:16:25.849Z,1018.643
2017-06-14T17:19:21.025Z,1018.648
2017-06-14T17:22:16.150Z,1018.681
2017-06-14T17:28:06.414Z,1018.649
2017-06-14T17:31:01.474Z,1018.610
2017-06-14T17:33:56.719Z,1018.631
2017-06-14T17:36:51.913Z,1018.627
2017-06-14T17:39:46.979Z,1018.615
2017-06-14T17:42:42.007Z,1018.603
2017-06-14T17:45:37.066Z,1018.586
2017-06-14T17:48:32.192Z,1018.588
2017-06-14T17:51:27.378Z,1018.571
2017-06-14T17:54:22.421Z,1018.506
2017-06-14T17:57:17.511Z,1018.492
2017-06-14T18:00:12.673Z,1018.504
2017-06-14T18:03:07.781Z,1018.513
2017-06-14T18:06:02.826Z,1018.528
2017-06-14T18:08:57.999Z,1018.511
2017-06-14T18:11:53.043Z,1018.540
2017-06-14T18:14:48.190Z,1018.562
2017-06-14T18:20:38.415Z,1018.504
2017-06-14T18:23:33.623Z,1018.517
2017-06-14T18:26:28.757Z,1018.468
2017-06-14T18:29:23.840Z,1018.440
2017-06-14T18:32:18.863Z,1018.414
2017-06-14T18:35:13.981Z,1018.421
2017-06-14T18:38:09.098Z,1018.421
2017-06-14T18:41:04.220Z,1018.460
2017-06-14T18:43:59.172Z,1018.462
2017-06-14T18:46:54.233Z,1018.490
2017-06-14T18:49:49.301Z,1018.487
2017-06-14T18:52:44.299Z,1018.498
2017-06-14T18:55:39.411Z,1018.495
2017-06-14T18:58:34.344Z,1018.474
2017-06-14T19:04:24.548Z,1018.497
2017-06-14T19:10:14.551Z,1018.566
2017-06-14T19:13:09.560Z,1018.553
2017-06-14T19:16:04.671Z,1018.584
2017-06-14T19:18:59.679Z,1018.585
2017-06-14T19:21:54.745Z,1018.601
2017-06-14T19:24:49.736Z,1018.628
2017-06-14T19:27:44.766Z,1018.668
2017-06-14T19:30:39.779Z,1018.726
2017-06-14T19:33:34.779Z,1018.760
2017-06-14T19:36:29.829Z,1018.778
2017-06-14T19:42:19.833Z,1018.782
2017-06-14T19:45:14.948Z,1018.800
2017-06-14T19:48:09.816Z,1018.793
2017-06-14T19:51:04.832Z,1018.798
2017-06-14T19:56:54.877Z,1018.877
2017-06-14T20:02:44.848Z,1018.921
2017-06-14T20:05:39.858Z,1018.917
2017-06-14T20:08:34.751Z,1018.939
2017-06-14T20:11:29.653Z,1018.955
2017-06-14T20:14:24.585Z,1018.974
2017-06-14T20:17:19.504Z,1018.938
2017-06-14T20:20:14.594Z,1018.905
2017-06-14T20:23:09.576Z,1018.897
2017-06-14T20:26:04.403Z,1018.885
2017-06-14T20:28:59.228Z,1018.876
2017-06-14T20:31:54.046Z,1018.897
2017-06-14T20:34:48.820Z,1018.912
2017-06-14T20:37:43.684Z,1018.913
2017-06-14T20:40:38.531Z,1018.945
2017-06-14T20:43:33.480Z,1018.973
2017-06-14T20:48:55.237Z,1018.969
2017-06-14T20:51:39.862Z,1018.959
2017-06-14T20:54:34.281Z,1018.968
2017-06-14T20:57:40.446Z,1018.943
2017-06-14T21:03:53.974Z,1018.917
2017-06-14T21:07:45.981Z,1018.908
2017-06-14T21:10:30.992Z,1018.916
2017-06-14T21:13:25.427Z,1018.913
2017-06-14T21:16:20.099Z,1018.916
2017-06-14T21:20:34.095Z,1018.963
2017-06-14T21:34:03.428Z,1018.978
2017-06-14T21:36:47.077Z,1018.998
2017-06-14T21:50:36.481Z,1019.004
2017-06-14T22:06:31.081Z,1018.934
2017-06-14T22:57:38.665Z,1019.154
